sensor_id;sensor_type;location;lat;lon;timestamp;temperature;humidity
78541;SHT31;67835;51.968;5.646;2023-02-15T00:02:08;7.3;68.3
78541;SHT31;67835;51.968;5.646;2023-02-15T00:04:38;7.3;68.3
78541;SHT31;67835;51.968;5.646;2023-02-15T00:07:19;7.4;67.2
78541;SHT31;67835;51.968;5.646;2023-02-15T00:09:49;7.4;66.0
78541;SHT31;67835;51.968;5.646;2023-02-15T00:12:19;7.4;65.1
78541;SHT31;67835;51.968;5.646;2023-02-15T00:14:49;7.4;64.6
78541;SHT31;67835;51.968;5.646;2023-02-15T00:17:19;7.4;63.2
78541;SHT31;67835;51.968;5.646;2023-02-15T00:19:49;7.4;64.4
78541;SHT31;67835;51.968;5.646;2023-02-15T00:22:20;7.4;63.2
78541;SHT31;67835;51.968;5.646;2023-02-15T00:24:50;7.3;65.5
78541;SHT31;67835;51.968;5.646;2023-02-15T00:27:19;7.3;67.6
78541;SHT31;67835;51.968;5.646;2023-02-15T00:29:49;7.3;69.9
78541;SHT31;67835;51.968;5.646;2023-02-15T00:32:19;7.3;70.2
78541;SHT31;67835;51.968;5.646;2023-02-15T00:34:49;7.3;69.7
78541;SHT31;67835;51.968;5.646;2023-02-15T00:37:21;7.3;69.4
78541;SHT31;67835;51.968;5.646;2023-02-15T00:39:51;7.3;68.4
78541;SHT31;67835;51.968;5.646;2023-02-15T00:42:21;7.3;68.9
78541;SHT31;67835;51.968;5.646;2023-02-15T00:44:50;7.4;69.1
78541;SHT31;67835;51.968;5.646;2023-02-15T00:47:20;7.4;67.9
78541;SHT31;67835;51.968;5.646;2023-02-15T00:49:51;7.4;67.6
78541;SHT31;67835;51.968;5.646;2023-02-15T00:52:21;7.4;68.2
78541;SHT31;67835;51.968;5.646;2023-02-15T00:54:51;7.4;68.2
78541;SHT31;67835;51.968;5.646;2023-02-15T00:57:20;7.4;68.9
78541;SHT31;67835;51.968;5.646;2023-02-15T00:59:51;7.4;69.0
78541;SHT31;67835;51.968;5.646;2023-02-15T01:02:20;7.4;69.6
78541;SHT31;67835;51.968;5.646;2023-02-15T01:04:50;7.4;69.7
78541;SHT31;67835;51.968;5.646;2023-02-15T01:07:23;7.4;69.5
78541;SHT31;67835;51.968;5.646;2023-02-15T01:09:52;7.4;69.3
78541;SHT31;67835;51.968;5.646;2023-02-15T01:12:22;7.4;69.5
78541;SHT31;67835;51.968;5.646;2023-02-15T01:14:54;7.4;69.2
78541;SHT31;67835;51.968;5.646;2023-02-15T01:17:24;7.4;69.2
78541;SHT31;67835;51.968;5.646;2023-02-15T01:19:54;7.4;69.7
78541;SHT31;67835;51.968;5.646;2023-02-15T01:22:25;7.4;69.2
78541;SHT31;67835;51.968;5.646;2023-02-15T01:24:55;7.4;69.4
78541;SHT31;67835;51.968;5.646;2023-02-15T01:27:25;7.4;69.3
78541;SHT31;67835;51.968;5.646;2023-02-15T01:29:57;7.4;68.9
78541;SHT31;67835;51.968;5.646;2023-02-15T01:32:27;7.4;69.1
78541;SHT31;67835;51.968;5.646;2023-02-15T01:34:57;7.4;68.9
78541;SHT31;67835;51.968;5.646;2023-02-15T01:37:27;7.4;69.2
78541;SHT31;67835;51.968;5.646;2023-02-15T01:39:56;7.4;68.9
78541;SHT31;67835;51.968;5.646;2023-02-15T01:42:28;7.4;68.8
78541;SHT31;67835;51.968;5.646;2023-02-15T01:45:02;7.4;68.8
78541;SHT31;67835;51.968;5.646;2023-02-15T01:47:38;7.4;68.6
78541;SHT31;67835;51.968;5.646;2023-02-15T01:50:15;7.4;68.7
78541;SHT31;67835;51.968;5.646;2023-02-15T01:52:50;7.4;68.8
78541;SHT31;67835;51.968;5.646;2023-02-15T01:55:29;7.4;69.2
78541;SHT31;67835;51.968;5.646;2023-02-15T01:58:11;7.6;68.3
78541;SHT31;67835;51.968;5.646;2023-02-15T02:00:43;7.6;67.5
78541;SHT31;67835;51.968;5.646;2023-02-15T02:03:13;7.7;67.1
78541;SHT31;67835;51.968;5.646;2023-02-15T02:05:44;7.7;66.6
78541;SHT31;67835;51.968;5.646;2023-02-15T02:08:14;7.7;66.5
78541;SHT31;67835;51.968;5.646;2023-02-15T02:10:44;7.7;66.4
78541;SHT31;67835;51.968;5.646;2023-02-15T02:13:15;7.7;66.3
78541;SHT31;67835;51.968;5.646;2023-02-15T02:15:53;7.6;66.3
78541;SHT31;67835;51.968;5.646;2023-02-15T02:18:39;7.6;66.4
78541;SHT31;67835;51.968;5.646;2023-02-15T02:22:11;7.5;66.3
78541;SHT31;67835;51.968;5.646;2023-02-15T02:25:02;7.5;66.7
78541;SHT31;67835;51.968;5.646;2023-02-15T02:27:39;7.4;67.1
78541;SHT31;67835;51.968;5.646;2023-02-15T02:31:00;7.4;67.1
78541;SHT31;67835;51.968;5.646;2023-02-15T02:33:49;7.4;67.2
78541;SHT31;67835;51.968;5.646;2023-02-15T02:36:27;7.3;66.7
78541;SHT31;67835;51.968;5.646;2023-02-15T02:39:10;7.3;66.8
78541;SHT31;67835;51.968;5.646;2023-02-15T02:41:55;7.3;66.7
78541;SHT31;67835;51.968;5.646;2023-02-15T02:44:31;7.2;67.0
78541;SHT31;67835;51.968;5.646;2023-02-15T02:47:11;7.2;67.1
78541;SHT31;67835;51.968;5.646;2023-02-15T02:49:43;7.2;67.4
78541;SHT31;67835;51.968;5.646;2023-02-15T02:52:58;7.1;67.3
78541;SHT31;67835;51.968;5.646;2023-02-15T02:55:31;7.1;67.7
78541;SHT31;67835;51.968;5.646;2023-02-15T02:58:05;7.2;67.3
78541;SHT31;67835;51.968;5.646;2023-02-15T03:00:41;7.2;66.4
78541;SHT31;67835;51.968;5.646;2023-02-15T03:03:21;7.2;66.3
78541;SHT31;67835;51.968;5.646;2023-02-15T03:05:58;7.2;66.5
78541;SHT31;67835;51.968;5.646;2023-02-15T03:08:37;7.2;66.3
78541;SHT31;67835;51.968;5.646;2023-02-15T03:11:08;7.1;66.2
78541;SHT31;67835;51.968;5.646;2023-02-15T03:13:39;7.1;66.2
78541;SHT31;67835;51.968;5.646;2023-02-15T03:16:12;7.1;66.2
78541;SHT31;67835;51.968;5.646;2023-02-15T03:19:01;7.0;66.6
78541;SHT31;67835;51.968;5.646;2023-02-15T03:21:41;6.9;66.8
78541;SHT31;67835;51.968;5.646;2023-02-15T03:24:20;6.9;66.8
78541;SHT31;67835;51.968;5.646;2023-02-15T03:26:52;6.9;66.7
78541;SHT31;67835;51.968;5.646;2023-02-15T03:29:28;6.8;66.8
78541;SHT31;67835;51.968;5.646;2023-02-15T03:32:01;6.8;66.9
78541;SHT31;67835;51.968;5.646;2023-02-15T03:34:32;6.7;67.0
78541;SHT31;67835;51.968;5.646;2023-02-15T03:37:10;6.7;67.1
78541;SHT31;67835;51.968;5.646;2023-02-15T03:39:45;6.7;66.9
78541;SHT31;67835;51.968;5.646;2023-02-15T03:42:22;6.6;67.0
78541;SHT31;67835;51.968;5.646;2023-02-15T03:45:01;6.6;66.9
78541;SHT31;67835;51.968;5.646;2023-02-15T03:47:36;6.6;67.1
78541;SHT31;67835;51.968;5.646;2023-02-15T03:50:12;6.5;67.3
78541;SHT31;67835;51.968;5.646;2023-02-15T03:54:07;6.5;67.6
78541;SHT31;67835;51.968;5.646;2023-02-15T03:56:39;6.5;67.8
78541;SHT31;67835;51.968;5.646;2023-02-15T03:59:15;6.5;68.0
78541;SHT31;67835;51.968;5.646;2023-02-15T04:02:10;6.6;67.5
78541;SHT31;67835;51.968;5.646;2023-02-15T04:04:46;6.6;67.0
78541;SHT31;67835;51.968;5.646;2023-02-15T04:07:16;6.5;67.0
78541;SHT31;67835;51.968;5.646;2023-02-15T04:09:46;6.5;67.0
78541;SHT31;67835;51.968;5.646;2023-02-15T04:12:32;6.5;66.9
78541;SHT31;67835;51.968;5.646;2023-02-15T04:15:02;6.5;66.8
78541;SHT31;67835;51.968;5.646;2023-02-15T04:17:48;6.5;67.6
78541;SHT31;67835;51.968;5.646;2023-02-15T04:20:20;6.4;67.2
78541;SHT31;67835;51.968;5.646;2023-02-15T04:23:07;6.4;67.7
78541;SHT31;67835;51.968;5.646;2023-02-15T04:25:53;6.3;67.6
78541;SHT31;67835;51.968;5.646;2023-02-15T04:28:23;6.3;67.4
78541;SHT31;67835;51.968;5.646;2023-02-15T04:30:52;6.3;67.6
78541;SHT31;67835;51.968;5.646;2023-02-15T04:33:23;6.2;68.0
78541;SHT31;67835;51.968;5.646;2023-02-15T04:35:53;6.2;68.1
78541;SHT31;67835;51.968;5.646;2023-02-15T04:38:26;6.2;68.3
78541;SHT31;67835;51.968;5.646;2023-02-15T04:40:55;6.1;68.7
78541;SHT31;67835;51.968;5.646;2023-02-15T04:43:25;6.1;68.8
78541;SHT31;67835;51.968;5.646;2023-02-15T04:45:55;6.1;68.7
78541;SHT31;67835;51.968;5.646;2023-02-15T04:48:26;6.0;68.8
78541;SHT31;67835;51.968;5.646;2023-02-15T04:50:55;6.0;68.7
78541;SHT31;67835;51.968;5.646;2023-02-15T04:53:25;5.9;68.8
78541;SHT31;67835;51.968;5.646;2023-02-15T04:55:55;5.9;68.5
78541;SHT31;67835;51.968;5.646;2023-02-15T04:58:24;5.9;68.5
78541;SHT31;67835;51.968;5.646;2023-02-15T05:00:57;5.9;68.9
78541;SHT31;67835;51.968;5.646;2023-02-15T05:03:28;5.8;68.8
78541;SHT31;67835;51.968;5.646;2023-02-15T05:05:58;5.8;68.6
78541;SHT31;67835;51.968;5.646;2023-02-15T05:08:28;5.8;68.8
78541;SHT31;67835;51.968;5.646;2023-02-15T05:10:58;5.8;68.8
78541;SHT31;67835;51.968;5.646;2023-02-15T05:13:27;5.7;68.9
78541;SHT31;67835;51.968;5.646;2023-02-15T05:15:58;5.7;68.7
78541;SHT31;67835;51.968;5.646;2023-02-15T05:18:27;5.7;68.7
78541;SHT31;67835;51.968;5.646;2023-02-15T05:21:00;5.7;68.9
78541;SHT31;67835;51.968;5.646;2023-02-15T05:23:30;5.7;68.7
78541;SHT31;67835;51.968;5.646;2023-02-15T05:26:00;5.7;68.6
78541;SHT31;67835;51.968;5.646;2023-02-15T05:28:46;5.7;68.6
78541;SHT31;67835;51.968;5.646;2023-02-15T05:31:18;5.6;68.5
78541;SHT31;67835;51.968;5.646;2023-02-15T05:33:50;5.6;68.7
78541;SHT31;67835;51.968;5.646;2023-02-15T05:36:21;5.6;68.7
78541;SHT31;67835;51.968;5.646;2023-02-15T05:38:54;5.6;68.7
78541;SHT31;67835;51.968;5.646;2023-02-15T05:41:24;5.6;68.7
78541;SHT31;67835;51.968;5.646;2023-02-15T05:43:55;5.5;68.8
78541;SHT31;67835;51.968;5.646;2023-02-15T05:46:25;5.5;68.9
78541;SHT31;67835;51.968;5.646;2023-02-15T05:48:57;5.5;68.8
78541;SHT31;67835;51.968;5.646;2023-02-15T05:51:27;5.4;68.8
78541;SHT31;67835;51.968;5.646;2023-02-15T05:53:59;5.4;68.9
78541;SHT31;67835;51.968;5.646;2023-02-15T05:56:29;5.4;69.2
78541;SHT31;67835;51.968;5.646;2023-02-15T05:58:59;5.4;69.0
78541;SHT31;67835;51.968;5.646;2023-02-15T06:01:29;5.3;69.7
78541;SHT31;67835;51.968;5.646;2023-02-15T06:03:59;5.4;69.6
78541;SHT31;67835;51.968;5.646;2023-02-15T06:06:28;5.4;68.8
78541;SHT31;67835;51.968;5.646;2023-02-15T06:08:59;5.4;68.5
78541;SHT31;67835;51.968;5.646;2023-02-15T06:11:29;5.4;68.4
78541;SHT31;67835;51.968;5.646;2023-02-15T06:13:58;5.4;68.2
78541;SHT31;67835;51.968;5.646;2023-02-15T06:16:28;5.4;68.3
78541;SHT31;67835;51.968;5.646;2023-02-15T06:19:00;5.3;68.4
78541;SHT31;67835;51.968;5.646;2023-02-15T06:21:30;5.3;68.1
78541;SHT31;67835;51.968;5.646;2023-02-15T06:24:00;5.3;68.2
78541;SHT31;67835;51.968;5.646;2023-02-15T06:26:30;5.2;68.4
78541;SHT31;67835;51.968;5.646;2023-02-15T06:29:01;5.2;68.5
78541;SHT31;67835;51.968;5.646;2023-02-15T06:31:31;5.2;68.5
78541;SHT31;67835;51.968;5.646;2023-02-15T06:34:01;5.2;68.7
78541;SHT31;67835;51.968;5.646;2023-02-15T06:36:31;5.1;68.9
78541;SHT31;67835;51.968;5.646;2023-02-15T06:39:01;5.1;68.9
78541;SHT31;67835;51.968;5.646;2023-02-15T06:41:35;5.1;68.9
78541;SHT31;67835;51.968;5.646;2023-02-15T06:44:04;5.1;68.9
78541;SHT31;67835;51.968;5.646;2023-02-15T06:46:34;5.1;68.9
78541;SHT31;67835;51.968;5.646;2023-02-15T06:49:04;5.1;68.8
78541;SHT31;67835;51.968;5.646;2023-02-15T06:51:34;5.1;69.0
78541;SHT31;67835;51.968;5.646;2023-02-15T06:54:05;5.1;69.1
78541;SHT31;67835;51.968;5.646;2023-02-15T06:56:34;5.0;69.1
78541;SHT31;67835;51.968;5.646;2023-02-15T06:59:08;5.0;69.2
78541;SHT31;67835;51.968;5.646;2023-02-15T07:01:38;5.0;69.2
78541;SHT31;67835;51.968;5.646;2023-02-15T07:04:10;5.0;69.5
78541;SHT31;67835;51.968;5.646;2023-02-15T07:06:41;5.1;69.3
78541;SHT31;67835;51.968;5.646;2023-02-15T07:09:11;5.1;68.7
78541;SHT31;67835;51.968;5.646;2023-02-15T07:11:40;5.1;68.6
78541;SHT31;67835;51.968;5.646;2023-02-15T07:14:26;5.1;68.6
78541;SHT31;67835;51.968;5.646;2023-02-15T07:16:56;5.1;68.7
78541;SHT31;67835;51.968;5.646;2023-02-15T07:19:26;5.1;68.8
78541;SHT31;67835;51.968;5.646;2023-02-15T07:21:57;5.1;68.8
78541;SHT31;67835;51.968;5.646;2023-02-15T07:24:26;5.2;68.7
78541;SHT31;67835;51.968;5.646;2023-02-15T07:26:57;5.2;68.7
78541;SHT31;67835;51.968;5.646;2023-02-15T07:29:29;5.2;68.8
78541;SHT31;67835;51.968;5.646;2023-02-15T07:32:00;5.2;69.0
78541;SHT31;67835;51.968;5.646;2023-02-15T07:34:30;5.2;69.1
78541;SHT31;67835;51.968;5.646;2023-02-15T07:37:00;5.2;69.2
78541;SHT31;67835;51.968;5.646;2023-02-15T07:39:30;5.2;69.2
78541;SHT31;67835;51.968;5.646;2023-02-15T07:42:00;5.2;69.8
78541;SHT31;67835;51.968;5.646;2023-02-15T07:44:29;5.2;71.2
78541;SHT31;67835;51.968;5.646;2023-02-15T07:46:59;5.4;70.5
78541;SHT31;67835;51.968;5.646;2023-02-15T07:49:29;5.6;70.5
78541;SHT31;67835;51.968;5.646;2023-02-15T07:52:00;5.8;68.7
78541;SHT31;67835;51.968;5.646;2023-02-15T07:54:32;6.2;69.9
78541;SHT31;67835;51.968;5.646;2023-02-15T07:57:03;6.6;66.3
78541;SHT31;67835;51.968;5.646;2023-02-15T07:59:33;6.9;65.4
78541;SHT31;67835;51.968;5.646;2023-02-15T08:02:05;7.3;62.9
78541;SHT31;67835;51.968;5.646;2023-02-15T08:04:35;7.6;61.8
78541;SHT31;67835;51.968;5.646;2023-02-15T08:07:06;7.9;60.4
78541;SHT31;67835;51.968;5.646;2023-02-15T08:09:37;8.2;58.7
78541;SHT31;67835;51.968;5.646;2023-02-15T08:12:07;8.3;58.1
78541;SHT31;67835;51.968;5.646;2023-02-15T08:14:37;8.5;57.8
78541;SHT31;67835;51.968;5.646;2023-02-15T08:17:07;8.7;57.8
78541;SHT31;67835;51.968;5.646;2023-02-15T08:19:37;8.9;56.4
78541;SHT31;67835;51.968;5.646;2023-02-15T08:22:11;9.1;56.2
78541;SHT31;67835;51.968;5.646;2023-02-15T08:24:41;9.4;55.4
78541;SHT31;67835;51.968;5.646;2023-02-15T08:27:11;9.7;54.7
78541;SHT31;67835;51.968;5.646;2023-02-15T08:29:41;10.0;53.6
78541;SHT31;67835;51.968;5.646;2023-02-15T08:32:12;10.2;52.7
78541;SHT31;67835;51.968;5.646;2023-02-15T08:34:42;10.5;51.9
78541;SHT31;67835;51.968;5.646;2023-02-15T08:37:12;10.8;50.8
78541;SHT31;67835;51.968;5.646;2023-02-15T08:39:42;11.0;50.3
78541;SHT31;67835;51.968;5.646;2023-02-15T08:42:13;11.4;49.7
78541;SHT31;67835;51.968;5.646;2023-02-15T08:44:45;11.7;49.3
78541;SHT31;67835;51.968;5.646;2023-02-15T08:47:17;12.1;47.8
78541;SHT31;67835;51.968;5.646;2023-02-15T08:49:47;12.5;46.4
78541;SHT31;67835;51.968;5.646;2023-02-15T08:52:18;12.8;45.6
78541;SHT31;67835;51.968;5.646;2023-02-15T08:54:48;13.0;45.2
78541;SHT31;67835;51.968;5.646;2023-02-15T08:57:18;13.2;45.0
78541;SHT31;67835;51.968;5.646;2023-02-15T08:59:51;13.5;44.7
78541;SHT31;67835;51.968;5.646;2023-02-15T09:02:22;13.7;43.7
78541;SHT31;67835;51.968;5.646;2023-02-15T09:04:52;13.9;43.7
78541;SHT31;67835;51.968;5.646;2023-02-15T09:07:22;14.1;43.3
78541;SHT31;67835;51.968;5.646;2023-02-15T09:09:55;14.3;42.7
78541;SHT31;67835;51.968;5.646;2023-02-15T09:12:28;14.5;42.8
78541;SHT31;67835;51.968;5.646;2023-02-15T09:14:57;14.7;42.0
78541;SHT31;67835;51.968;5.646;2023-02-15T09:17:27;14.8;41.4
78541;SHT31;67835;51.968;5.646;2023-02-15T09:19:57;14.9;41.0
78541;SHT31;67835;51.968;5.646;2023-02-15T09:22:27;15.0;40.9
78541;SHT31;67835;51.968;5.646;2023-02-15T09:24:58;15.0;41.0
78541;SHT31;67835;51.968;5.646;2023-02-15T09:27:28;15.0;41.0
78541;SHT31;67835;51.968;5.646;2023-02-15T09:29:58;15.0;41.3
78541;SHT31;67835;51.968;5.646;2023-02-15T09:32:28;15.1;41.4
78541;SHT31;67835;51.968;5.646;2023-02-15T09:34:57;15.1;41.0
78541;SHT31;67835;51.968;5.646;2023-02-15T09:37:30;15.3;41.0
78541;SHT31;67835;51.968;5.646;2023-02-15T09:40:01;15.4;41.2
78541;SHT31;67835;51.968;5.646;2023-02-15T09:42:47;15.5;40.3
78541;SHT31;67835;51.968;5.646;2023-02-15T09:45:27;15.7;40.1
78541;SHT31;67835;51.968;5.646;2023-02-15T09:48:48;15.8;39.9
78541;SHT31;67835;51.968;5.646;2023-02-15T09:51:38;15.9;39.7
78541;SHT31;67835;51.968;5.646;2023-02-15T09:54:25;16.1;40.0
78541;SHT31;67835;51.968;5.646;2023-02-15T09:57:04;16.2;40.0
78541;SHT31;67835;51.968;5.646;2023-02-15T09:59:45;16.3;39.7
78541;SHT31;67835;51.968;5.646;2023-02-15T10:02:33;16.5;38.7
78541;SHT31;67835;51.968;5.646;2023-02-15T10:05:19;16.7;38.2
78541;SHT31;67835;51.968;5.646;2023-02-15T10:08:10;16.9;38.1
78541;SHT31;67835;51.968;5.646;2023-02-15T10:10:54;17.4;37.9
78541;SHT31;67835;51.968;5.646;2023-02-15T10:13:41;17.8;37.1
78541;SHT31;67835;51.968;5.646;2023-02-15T10:16:25;18.1;36.3
78541;SHT31;67835;51.968;5.646;2023-02-15T10:19:07;18.5;36.0
78541;SHT31;67835;51.968;5.646;2023-02-15T10:21:53;18.8;35.5
78541;SHT31;67835;51.968;5.646;2023-02-15T10:24:46;19.2;34.9
78541;SHT31;67835;51.968;5.646;2023-02-15T10:27:21;19.5;34.5
78541;SHT31;67835;51.968;5.646;2023-02-15T10:30:05;19.7;33.5
78541;SHT31;67835;51.968;5.646;2023-02-15T10:32:53;20.0;33.9
78541;SHT31;67835;51.968;5.646;2023-02-15T10:35:36;20.3;33.1
78541;SHT31;67835;51.968;5.646;2023-02-15T10:38:12;20.4;32.8
78541;SHT31;67835;51.968;5.646;2023-02-15T10:40:55;20.6;32.2
78541;SHT31;67835;51.968;5.646;2023-02-15T10:43:44;20.8;32.2
78541;SHT31;67835;51.968;5.646;2023-02-15T10:46:32;21.1;31.5
78541;SHT31;67835;51.968;5.646;2023-02-15T10:49:26;21.3;30.7
78541;SHT31;67835;51.968;5.646;2023-02-15T10:52:14;21.4;31.6
78541;SHT31;67835;51.968;5.646;2023-02-15T10:54:55;21.6;31.2
78541;SHT31;67835;51.968;5.646;2023-02-15T10:57:36;21.9;30.8
78541;SHT31;67835;51.968;5.646;2023-02-15T11:00:14;22.1;30.9
78541;SHT31;67835;51.968;5.646;2023-02-15T11:03:56;22.4;30.6
78541;SHT31;67835;51.968;5.646;2023-02-15T11:06:31;22.9;29.5
78541;SHT31;67835;51.968;5.646;2023-02-15T11:09:12;23.1;29.4
78541;SHT31;67835;51.968;5.646;2023-02-15T11:11:50;23.4;28.6
78541;SHT31;67835;51.968;5.646;2023-02-15T11:14:31;23.8;28.8
78541;SHT31;67835;51.968;5.646;2023-02-15T11:17:15;24.3;28.5
78541;SHT31;67835;51.968;5.646;2023-02-15T11:19:54;24.8;27.6
78541;SHT31;67835;51.968;5.646;2023-02-15T11:22:29;25.1;27.4
78541;SHT31;67835;51.968;5.646;2023-02-15T11:25:01;25.3;26.5
78541;SHT31;67835;51.968;5.646;2023-02-15T11:27:32;25.5;26.5
78541;SHT31;67835;51.968;5.646;2023-02-15T11:30:06;25.6;26.2
78541;SHT31;67835;51.968;5.646;2023-02-15T11:32:41;25.6;26.1
78541;SHT31;67835;51.968;5.646;2023-02-15T11:35:23;25.6;25.9
78541;SHT31;67835;51.968;5.646;2023-02-15T11:38:03;25.5;26.0
78541;SHT31;67835;51.968;5.646;2023-02-15T11:40:44;25.4;26.1
78541;SHT31;67835;51.968;5.646;2023-02-15T11:43:21;25.3;25.8
78541;SHT31;67835;51.968;5.646;2023-02-15T11:45:54;25.2;26.0
78541;SHT31;67835;51.968;5.646;2023-02-15T11:48:25;24.9;26.5
78541;SHT31;67835;51.968;5.646;2023-02-15T11:50:56;24.7;27.0
78541;SHT31;67835;51.968;5.646;2023-02-15T11:53:30;24.6;28.1
78541;SHT31;67835;51.968;5.646;2023-02-15T11:56:02;24.6;28.1
78541;SHT31;67835;51.968;5.646;2023-02-15T11:58:40;24.6;27.2
78541;SHT31;67835;51.968;5.646;2023-02-15T12:01:15;24.5;27.4
78541;SHT31;67835;51.968;5.646;2023-02-15T12:03:49;24.4;27.7
78541;SHT31;67835;51.968;5.646;2023-02-15T12:06:26;24.3;27.7
78541;SHT31;67835;51.968;5.646;2023-02-15T12:09:03;24.2;27.7
78541;SHT31;67835;51.968;5.646;2023-02-15T12:11:40;24.2;28.1
78541;SHT31;67835;51.968;5.646;2023-02-15T12:14:11;24.1;28.2
78541;SHT31;67835;51.968;5.646;2023-02-15T12:16:45;24.1;28.7
78541;SHT31;67835;51.968;5.646;2023-02-15T12:20:30;24.1;28.6
78541;SHT31;67835;51.968;5.646;2023-02-15T12:23:05;24.4;28.4
78541;SHT31;67835;51.968;5.646;2023-02-15T12:25:40;24.5;28.2
78541;SHT31;67835;51.968;5.646;2023-02-15T12:28:26;24.5;28.4
78541;SHT31;67835;51.968;5.646;2023-02-15T12:31:06;24.5;28.3
78541;SHT31;67835;51.968;5.646;2023-02-15T12:33:41;24.5;28.1
78541;SHT31;67835;51.968;5.646;2023-02-15T12:36:18;24.6;28.0
78541;SHT31;67835;51.968;5.646;2023-02-15T12:39:05;24.7;27.1
78541;SHT31;67835;51.968;5.646;2023-02-15T12:41:45;24.9;27.0
78541;SHT31;67835;51.968;5.646;2023-02-15T12:44:19;25.0;26.9
78541;SHT31;67835;51.968;5.646;2023-02-15T12:46:59;25.0;26.7
78541;SHT31;67835;51.968;5.646;2023-02-15T12:49:32;25.1;27.0
78541;SHT31;67835;51.968;5.646;2023-02-15T12:52:04;25.1;27.1
78541;SHT31;67835;51.968;5.646;2023-02-15T12:54:40;25.0;27.1
78541;SHT31;67835;51.968;5.646;2023-02-15T12:57:26;25.0;26.8
78541;SHT31;67835;51.968;5.646;2023-02-15T12:59:58;24.9;26.8
78541;SHT31;67835;51.968;5.646;2023-02-15T13:02:40;24.8;27.3
78541;SHT31;67835;51.968;5.646;2023-02-15T13:05:19;24.6;27.2
78541;SHT31;67835;51.968;5.646;2023-02-15T13:07:56;24.5;27.7
78541;SHT31;67835;51.968;5.646;2023-02-15T13:10:29;24.3;28.1
78541;SHT31;67835;51.968;5.646;2023-02-15T13:13:00;24.1;27.7
78541;SHT31;67835;51.968;5.646;2023-02-15T13:15:35;23.9;27.9
78541;SHT31;67835;51.968;5.646;2023-02-15T13:18:14;23.6;28.2
78541;SHT31;67835;51.968;5.646;2023-02-15T13:20:49;23.3;28.6
78541;SHT31;67835;51.968;5.646;2023-02-15T13:23:25;22.9;29.1
78541;SHT31;67835;51.968;5.646;2023-02-15T13:25:59;22.6;29.9
78541;SHT31;67835;51.968;5.646;2023-02-15T13:28:39;22.4;30.3
78541;SHT31;67835;51.968;5.646;2023-02-15T13:31:17;22.1;30.4
78541;SHT31;67835;51.968;5.646;2023-02-15T13:33:51;21.9;31.0
78541;SHT31;67835;51.968;5.646;2023-02-15T13:36:31;21.8;31.5
78541;SHT31;67835;51.968;5.646;2023-02-15T13:39:22;21.7;32.2
78541;SHT31;67835;51.968;5.646;2023-02-15T13:42:00;21.6;32.3
78541;SHT31;67835;51.968;5.646;2023-02-15T13:45:26;21.6;31.7
78541;SHT31;67835;51.968;5.646;2023-02-15T13:48:12;21.5;31.9
78541;SHT31;67835;51.968;5.646;2023-02-15T13:50:56;21.4;32.0
78541;SHT31;67835;51.968;5.646;2023-02-15T13:53:51;21.2;32.1
78541;SHT31;67835;51.968;5.646;2023-02-15T13:56:38;21.1;32.6
78541;SHT31;67835;51.968;5.646;2023-02-15T13:59:27;21.0;32.9
78541;SHT31;67835;51.968;5.646;2023-02-15T14:02:23;20.8;33.4
78541;SHT31;67835;51.968;5.646;2023-02-15T14:04:53;20.7;33.4
78541;SHT31;67835;51.968;5.646;2023-02-15T14:07:34;20.5;33.7
78541;SHT31;67835;51.968;5.646;2023-02-15T14:10:30;20.4;34.4
78541;SHT31;67835;51.968;5.646;2023-02-15T14:13:19;20.2;35.2
78541;SHT31;67835;51.968;5.646;2023-02-15T14:16:00;20.1;35.3
78541;SHT31;67835;51.968;5.646;2023-02-15T14:18:38;20.0;35.0
78541;SHT31;67835;51.968;5.646;2023-02-15T14:21:16;19.9;35.8
78541;SHT31;67835;51.968;5.646;2023-02-15T14:24:08;19.8;35.3
78541;SHT31;67835;51.968;5.646;2023-02-15T14:26:50;19.7;36.3
78541;SHT31;67835;51.968;5.646;2023-02-15T14:29:33;19.6;35.9
78541;SHT31;67835;51.968;5.646;2023-02-15T14:32:14;19.6;36.9
78541;SHT31;67835;51.968;5.646;2023-02-15T14:34:53;19.6;36.9
78541;SHT31;67835;51.968;5.646;2023-02-15T14:37:46;19.7;35.8
78541;SHT31;67835;51.968;5.646;2023-02-15T14:40:29;19.8;35.9
78541;SHT31;67835;51.968;5.646;2023-02-15T14:43:27;19.8;35.6
78541;SHT31;67835;51.968;5.646;2023-02-15T14:46:07;19.7;35.5
78541;SHT31;67835;51.968;5.646;2023-02-15T14:48:43;19.6;35.6
78541;SHT31;67835;51.968;5.646;2023-02-15T14:51:57;19.5;36.0
78541;SHT31;67835;51.968;5.646;2023-02-15T14:54:56;19.2;36.5
78541;SHT31;67835;51.968;5.646;2023-02-15T14:57:56;19.1;36.9
78541;SHT31;67835;51.968;5.646;2023-02-15T15:00:36;18.9;37.3
78541;SHT31;67835;51.968;5.646;2023-02-15T15:03:21;18.8;37.8
78541;SHT31;67835;51.968;5.646;2023-02-15T15:05:56;18.6;37.9
78541;SHT31;67835;51.968;5.646;2023-02-15T15:08:32;18.5;38.1
78541;SHT31;67835;51.968;5.646;2023-02-15T15:11:41;18.4;38.4
78541;SHT31;67835;51.968;5.646;2023-02-15T15:14:59;18.2;38.6
78541;SHT31;67835;51.968;5.646;2023-02-15T15:22:20;17.8;39.2
78541;SHT31;67835;51.968;5.646;2023-02-15T15:24:56;17.7;39.4
78541;SHT31;67835;51.968;5.646;2023-02-15T15:27:42;17.6;39.6
78541;SHT31;67835;51.968;5.646;2023-02-15T15:35:08;17.3;40.3
78541;SHT31;67835;51.968;5.646;2023-02-15T15:38:08;17.1;40.7
78541;SHT31;67835;51.968;5.646;2023-02-15T15:41:13;17.0;41.0
78541;SHT31;67835;51.968;5.646;2023-02-15T15:48:41;16.8;42.3
78541;SHT31;67835;51.968;5.646;2023-02-15T15:51:18;16.8;42.0
78541;SHT31;67835;51.968;5.646;2023-02-15T15:53:51;16.8;41.8
78541;SHT31;67835;51.968;5.646;2023-02-15T15:56:27;16.7;41.9
78541;SHT31;67835;51.968;5.646;2023-02-15T15:59:02;16.6;42.2
78541;SHT31;67835;51.968;5.646;2023-02-15T16:01:41;16.5;42.6
78541;SHT31;67835;51.968;5.646;2023-02-15T16:04:14;16.4;42.7
78541;SHT31;67835;51.968;5.646;2023-02-15T16:06:49;16.3;43.2
78541;SHT31;67835;51.968;5.646;2023-02-15T16:09:21;16.2;43.3
78541;SHT31;67835;51.968;5.646;2023-02-15T16:11:53;16.1;43.7
78541;SHT31;67835;51.968;5.646;2023-02-15T16:14:31;16.1;43.9
78541;SHT31;67835;51.968;5.646;2023-02-15T16:17:04;16.0;43.9
78541;SHT31;67835;51.968;5.646;2023-02-15T16:19:42;16.0;44.1
78541;SHT31;67835;51.968;5.646;2023-02-15T16:22:16;15.9;44.2
78541;SHT31;67835;51.968;5.646;2023-02-15T16:26:15;15.9;44.1
78541;SHT31;67835;51.968;5.646;2023-02-15T16:28:53;15.9;44.4
78541;SHT31;67835;51.968;5.646;2023-02-15T16:31:24;15.9;44.3
78541;SHT31;67835;51.968;5.646;2023-02-15T16:33:56;16.0;44.2
78541;SHT31;67835;51.968;5.646;2023-02-15T16:36:29;16.0;43.9
78541;SHT31;67835;51.968;5.646;2023-02-15T16:39:20;15.9;43.7
78541;SHT31;67835;51.968;5.646;2023-02-15T16:41:55;15.9;43.7
78541;SHT31;67835;51.968;5.646;2023-02-15T16:44:30;15.9;43.7
78541;SHT31;67835;51.968;5.646;2023-02-15T16:47:01;15.8;43.4
78541;SHT31;67835;51.968;5.646;2023-02-15T16:49:34;15.8;43.4
78541;SHT31;67835;51.968;5.646;2023-02-15T16:52:06;15.7;43.3
78541;SHT31;67835;51.968;5.646;2023-02-15T16:54:41;15.5;43.9
78541;SHT31;67835;51.968;5.646;2023-02-15T16:57:22;15.4;44.2
78541;SHT31;67835;51.968;5.646;2023-02-15T17:00:02;15.4;44.1
78541;SHT31;67835;51.968;5.646;2023-02-15T17:02:34;15.3;44.1
78541;SHT31;67835;51.968;5.646;2023-02-15T17:05:18;15.2;44.2
78541;SHT31;67835;51.968;5.646;2023-02-15T17:08:12;15.2;44.5
78541;SHT31;67835;51.968;5.646;2023-02-15T17:11:00;15.1;44.6
78541;SHT31;67835;51.968;5.646;2023-02-15T17:13:21;15.0;44.6
78541;SHT31;67835;51.968;5.646;2023-02-15T17:16:47;14.8;44.7
78541;SHT31;67835;51.968;5.646;2023-02-15T17:19:23;14.6;45.3
78541;SHT31;67835;51.968;5.646;2023-02-15T17:21:56;14.4;45.7
78541;SHT31;67835;51.968;5.646;2023-02-15T17:24:36;14.2;46.0
78541;SHT31;67835;51.968;5.646;2023-02-15T17:27:16;14.1;46.5
78541;SHT31;67835;51.968;5.646;2023-02-15T17:29:50;13.9;47.0